Pagina principale
METAR-TAF:

METAR-TAF

Aeroporti :

Emmen, Svizzera

latitudine: 47-05-32N, longitudine: 8-18-16E, altezza: 426 m

Osservazione

Il bollettino è stato emesso 56 minuti fa, alle 16:20 UTC
Vento calmo
Temperature 3°C
Umidità 93%
Pressione 1028 hPa
Visibilità 10 km o più
Nubi sparse ad un'altezza di 5800 ft
Cielo coperto ad un'altezza di 7300 ft

METAR: LSME 201620Z AUTO 00000KT 9999NDV SCT058 OVC073 03/02 Q1028 RMK

Ora: 18:16 (17:16 UTC)


TAF: mancante

Osservazioni e previsioni meteorologiche di più di 4000 aeroporti (messaggi METAR e TAF).

Le stazioni disponibili sono rappresentate dai dischi gialli e rossi sulla carta.

Puntare il mouse per vedere il nome della stazione.

Clicca sopra per visualizzare le osservazioni e previsioni meteorologiche.

Per cambiare la mappa : fare clic sui pulsanti verdi con una croce nera per ingrandire, il pulsante verde con un trattino per diminuire, o sulla freccia verde per le mappe adiacenti.


METAR-TAF: